Paganini — V2CL8 — position and weather

sailwx.info

Track history (hours):
 
Tides and Currents Weather Stations Pressure Air Temp Water Temp Dewpoint Dewpoint Depression Visibility Wind Speed Wind Dir Waves Ship Positions

Paganini

Last reported at 2015-May-19 19:33 UTC. Time now 2015-May-24 21:28 UTC.
Position N 37°36' E 025°54'.

Length 90 m; draft 3.8 m.

Type: Ship. MMSI: 305040000.

Date/timePositionNaut miles runAvg speedWind from/ knotsBaromVisibWave heightAir tempDewpointWater temp
2015-May-19 19:33N 37°36' E 025°54'39 9.3
2015-May-19 15:24N 37°08' E 026°28'8 9.6
2015-May-19 14:31N 37°03' E 026°36'9 9.4
2015-May-19 13:33N 36°55' E 026°42'10 9.8
2015-May-19 12:33N 36°47' E 026°49'19 9.6
2015-May-19 10:33N 36°32' E 027°05'10 9.8
2015-May-19 09:33N 36°31' E 027°17'10 9.6
2015-May-19 08:33N 36°31' E 027°29'10 9.6
2015-May-19 07:33N 36°30' E 027°41'11 9.3
2015-May-19 06:21N 36°29' E 027°55'8 9.4
2015-May-19 05:27N 36°31' E 028°05'9 9.4
2015-May-19 04:33N 36°32' E 028°16'  
2015-May-16 07:31N 35°51' E 027°36'8 8.2
2015-May-16 06:33N 35°54' E 027°27'8 8.2
2015-May-16 05:33N 35°56' E 027°17'9 8.5
2015-May-16 04:33N 35°55' E 027°06'9 8.6
2015-May-16 03:33N 35°52' E 026°56'8 8.4
2015-May-16 02:33N 35°50' E 026°47'8 8.4
2015-May-16 01:33N 35°47' E 026°37'9 8.6
2015-May-16 00:33N 35°45' E 026°27'9 8.4
2015-May-15 23:33N 35°45' E 026°16'8 8.3
2015-May-15 22:33N 35°45' E 026°06'8 8.2
2015-May-15 21:33N 35°45' E 025°56'18 8.4
2015-May-15 19:28N 35°45' E 025°34'17 8.4
2015-May-15 17:26N 35°45' E 025°13'8 8.5
2015-May-15 16:33N 35°45' E 025°04'26 7.7
2015-May-15 13:13N 35°45' E 024°32'16 7.8
2015-May-15 11:13N 35°45' E 024°13'8 8.1
2015-May-15 10:15N 35°45' E 024°03'8 8.7
2015-May-15 09:23N 35°45' E 023°54'8 8.8
2015-May-15 08:25N 35°45' E 023°44'51 8.5
2015-May-15 02:23N 35°49' E 022°40'263 8.8
2015-May-13 20:20N 36°21' E 017°17'90 8.3
2015-May-13 09:33N 36°32' E 015°26'8 8.2
2015-May-13 08:32N 36°33' E 015°16'8 8.3
2015-May-13 07:33N 36°34' E 015°06'11 8.3
2015-May-13 06:14N 36°36' E 014°52'6 8.4
2015-May-13 05:33N 36°38' E 014°46'9 8.6
2015-May-13 04:33N 36°40' E 014°35'9 9.1
2015-May-13 03:33N 36°42' E 014°24'9 8.8
2015-May-13 02:33N 36°44' E 014°14'9 8.6
2015-May-13 01:33N 36°46' E 014°03'9 8.7
2015-May-13 00:33N 36°48' E 013°53'9 8.7
2015-May-12 23:33N 36°50' E 013°42'9 8.8
2015-May-12 22:33N 36°52' E 013°31'9 8.4
2015-May-12 21:32N 36°54' E 013°21'8 8.3
2015-May-12 20:33N 36°56' E 013°11'9 8.1
2015-May-12 19:26N 36°58' E 012°60'7 8.4
2015-May-12 18:33N 36°59' E 012°51'9 8.7
2015-May-12 17:33N 37°01' E 012°40'9 8.9
2015-May-12 16:33N 37°03' E 012°29'11 8.6
2015-May-12 15:13N 37°06' E 012°15'6 8.6
2015-May-12 14:33N 37°07' E 012°08'9 8.6
2015-May-12 13:33N 37°09' E 011°58'9 8.5
2015-May-12 12:33N 37°12' E 011°48'9 8.6
2015-May-12 11:33N 37°14' E 011°37'11 8.6
2015-May-12 10:16N 37°18' E 011°24'6 8.9
2015-May-12 09:33N 37°19' E 011°17'13 9.0
2015-May-12 08:07N 37°24' E 011°02'8 8.8
2015-May-12 07:13N 37°26' E 010°52'5 7.6
2015-May-12 06:33N 37°27' E 010°46'10 9.5
2015-May-12 05:32N 37°30' E 010°34'14 9.6
2015-May-12 04:04N 37°33' E 010°17'24 9.3
2015-May-12 01:31N 37°30' E 009°47'9 9.4
2015-May-12 00:32N 37°28' E 009°36'168 8.7
2015-May-11 05:15N 37°14' E 006°05'6 8.3
2015-May-11 04:33N 37°13' E 005°58'69 8.5
2015-May-10 20:26N 37°09' E 004°31'8 8.9
2015-May-10 19:33N 37°08' E 004°21'8 8.2
2015-May-10 18:33N 37°07' E 004°11'8 8.1
2015-May-10 17:33N 37°06' E 004°01'8 8.2
2015-May-10 16:32N 37°05' E 003°51'8 7.9
2015-May-10 15:30N 37°04' E 003°40'8 8.2
2015-May-10 14:33N 37°03' E 003°31'9 8.1
2015-May-10 13:30N 37°02' E 003°20'18 8.4
2015-May-10 11:19N 36°59' E 002°58'7 8.3
2015-May-10 10:33N 36°59' E 002°49'9 8.4
2015-May-10 09:31N 36°57' E 002°39'8 8.2
2015-May-10 08:33N 36°56' E 002°29'9 8.7
2015-May-10 07:33N 36°55' E 002°18'10 9.3
2015-May-10 06:32N 36°54' E 002°06'9 9.0
2015-May-10 05:33N 36°52' E 001°55'9 9.2
2015-May-10 04:33N 36°50' E 001°44'9 9.2
2015-May-10 03:33N 36°49' E 001°33'9 9.4
2015-May-10 02:33N 36°47' E 001°21'9 9.2
2015-May-10 01:33N 36°45' E 001°10'11 9.4
2015-May-10 00:23N 36°43' E 000°57'8 9.1
2015-May-09 23:33N 36°41' E 000°47'9 8.9
2015-May-09 22:33N 36°40' E 000°37'9 8.6
2015-May-09 21:33N 36°38' E 000°26'8 8.4
2015-May-09 20:33N 36°36' E 000°16'8 8.3
2015-May-09 19:33N 36°34' E 000°06'  
Track history (hours):
 
Tides and Currents Weather Stations Pressure Air Temp Water Temp Dewpoint Dewpoint Depression Visibility Wind Speed Wind Dir Waves Ship Positions

Paganini

Last reported at 2015-May-19 19:33 UTC. Time now 2015-May-24 21:28 UTC.
Position N 37°36' E 025°54'.

Length 90 m; draft 3.8 m.

Type: Ship. MMSI: 305040000.

Date/timePositionNaut miles runAvg speedWind from/ knotsBaromVisibWave heightAir tempDewpointWater temp
2015-May-19 19:33N 37°36' E 025°54'39 9.3
2015-May-19 15:24N 37°08' E 026°28'8 9.6
2015-May-19 14:31N 37°03' E 026°36'9 9.4
2015-May-19 13:33N 36°55' E 026°42'10 9.8
2015-May-19 12:33N 36°47' E 026°49'19 9.6
2015-May-19 10:33N 36°32' E 027°05'10 9.8
2015-May-19 09:33N 36°31' E 027°17'10 9.6
2015-May-19 08:33N 36°31' E 027°29'10 9.6
2015-May-19 07:33N 36°30' E 027°41'11 9.3
2015-May-19 06:21N 36°29' E 027°55'8 9.4
2015-May-19 05:27N 36°31' E 028°05'9 9.4
2015-May-19 04:33N 36°32' E 028°16'  
2015-May-16 07:31N 35°51' E 027°36'8 8.2
2015-May-16 06:33N 35°54' E 027°27'8 8.2
2015-May-16 05:33N 35°56' E 027°17'9 8.5
2015-May-16 04:33N 35°55' E 027°06'9 8.6
2015-May-16 03:33N 35°52' E 026°56'8 8.4
2015-May-16 02:33N 35°50' E 026°47'8 8.4
2015-May-16 01:33N 35°47' E 026°37'9 8.6
2015-May-16 00:33N 35°45' E 026°27'9 8.4
2015-May-15 23:33N 35°45' E 026°16'8 8.3
2015-May-15 22:33N 35°45' E 026°06'8 8.2
2015-May-15 21:33N 35°45' E 025°56'18 8.4
2015-May-15 19:28N 35°45' E 025°34'17 8.4
2015-May-15 17:26N 35°45' E 025°13'8 8.5
2015-May-15 16:33N 35°45' E 025°04'26 7.7
2015-May-15 13:13N 35°45' E 024°32'16 7.8
2015-May-15 11:13N 35°45' E 024°13'8 8.1
2015-May-15 10:15N 35°45' E 024°03'8 8.7
2015-May-15 09:23N 35°45' E 023°54'8 8.8
2015-May-15 08:25N 35°45' E 023°44'51 8.5
2015-May-15 02:23N 35°49' E 022°40'263 8.8
2015-May-13 20:20N 36°21' E 017°17'90 8.3
2015-May-13 09:33N 36°32' E 015°26'8 8.2
2015-May-13 08:32N 36°33' E 015°16'8 8.3
2015-May-13 07:33N 36°34' E 015°06'11 8.3
2015-May-13 06:14N 36°36' E 014°52'6 8.4
2015-May-13 05:33N 36°38' E 014°46'9 8.6
2015-May-13 04:33N 36°40' E 014°35'9 9.1
2015-May-13 03:33N 36°42' E 014°24'9 8.8
2015-May-13 02:33N 36°44' E 014°14'9 8.6
2015-May-13 01:33N 36°46' E 014°03'9 8.7
2015-May-13 00:33N 36°48' E 013°53'9 8.7
2015-May-12 23:33N 36°50' E 013°42'9 8.8
2015-May-12 22:33N 36°52' E 013°31'9 8.4
2015-May-12 21:32N 36°54' E 013°21'8 8.3
2015-May-12 20:33N 36°56' E 013°11'9 8.1
2015-May-12 19:26N 36°58' E 012°60'7 8.4
2015-May-12 18:33N 36°59' E 012°51'9 8.7
2015-May-12 17:33N 37°01' E 012°40'9 8.9
2015-May-12 16:33N 37°03' E 012°29'11 8.6
2015-May-12 15:13N 37°06' E 012°15'6 8.6
2015-May-12 14:33N 37°07' E 012°08'9 8.6
2015-May-12 13:33N 37°09' E 011°58'9 8.5
2015-May-12 12:33N 37°12' E 011°48'9 8.6
2015-May-12 11:33N 37°14' E 011°37'11 8.6
2015-May-12 10:16N 37°18' E 011°24'6 8.9
2015-May-12 09:33N 37°19' E 011°17'13 9.0
2015-May-12 08:07N 37°24' E 011°02'8 8.8
2015-May-12 07:13N 37°26' E 010°52'5 7.6
2015-May-12 06:33N 37°27' E 010°46'10 9.5
2015-May-12 05:32N 37°30' E 010°34'14 9.6
2015-May-12 04:04N 37°33' E 010°17'24 9.3
2015-May-12 01:31N 37°30' E 009°47'9 9.4
2015-May-12 00:32N 37°28' E 009°36'168 8.7
2015-May-11 05:15N 37°14' E 006°05'6 8.3
2015-May-11 04:33N 37°13' E 005°58'69 8.5
2015-May-10 20:26N 37°09' E 004°31'8 8.9
2015-May-10 19:33N 37°08' E 004°21'8 8.2
2015-May-10 18:33N 37°07' E 004°11'8 8.1
2015-May-10 17:33N 37°06' E 004°01'8 8.2
2015-May-10 16:32N 37°05' E 003°51'8 7.9
2015-May-10 15:30N 37°04' E 003°40'8 8.2
2015-May-10 14:33N 37°03' E 003°31'9 8.1
2015-May-10 13:30N 37°02' E 003°20'18 8.4
2015-May-10 11:19N 36°59' E 002°58'7 8.3
2015-May-10 10:33N 36°59' E 002°49'9 8.4
2015-May-10 09:31N 36°57' E 002°39'8 8.2
2015-May-10 08:33N 36°56' E 002°29'9 8.7
2015-May-10 07:33N 36°55' E 002°18'10 9.3
2015-May-10 06:32N 36°54' E 002°06'9 9.0
2015-May-10 05:33N 36°52' E 001°55'9 9.2
2015-May-10 04:33N 36°50' E 001°44'9 9.2
2015-May-10 03:33N 36°49' E 001°33'9 9.4
2015-May-10 02:33N 36°47' E 001°21'9 9.2
2015-May-10 01:33N 36°45' E 001°10'11 9.4
2015-May-10 00:23N 36°43' E 000°57'8 9.1
2015-May-09 23:33N 36°41' E 000°47'9 8.9
2015-May-09 22:33N 36°40' E 000°37'9 8.6
2015-May-09 21:33N 36°38' E 000°26'8 8.4
2015-May-09 20:33N 36°36' E 000°16'8 8.3
2015-May-09 19:33N 36°34' E 000°06'  

Dump ship's entire track history